sensor_id;sensor_type;location;lat;lon;timestamp;P1;durP1;ratioP1;P2;durP2;ratioP2
69989;SDS011;57331;52.054;5.294;2023-07-29T00:01:57;6.20;;;2.30;;
69989;SDS011;57331;52.054;5.294;2023-07-29T00:04:24;5.03;;;2.63;;
69989;SDS011;57331;52.054;5.294;2023-07-29T00:06:51;6.37;;;2.40;;
69989;SDS011;57331;52.054;5.294;2023-07-29T00:09:18;4.82;;;1.95;;
69989;SDS011;57331;52.054;5.294;2023-07-29T00:11:46;7.75;;;3.33;;
69989;SDS011;57331;52.054;5.294;2023-07-29T00:14:13;5.63;;;2.30;;
69989;SDS011;57331;52.054;5.294;2023-07-29T00:16:40;8.00;;;2.88;;
69989;SDS011;57331;52.054;5.294;2023-07-29T00:19:08;5.57;;;2.20;;
69989;SDS011;57331;52.054;5.294;2023-07-29T00:21:35;5.22;;;2.40;;
69989;SDS011;57331;52.054;5.294;2023-07-29T00:24:03;6.22;;;2.60;;
69989;SDS011;57331;52.054;5.294;2023-07-29T00:26:30;6.28;;;2.20;;
69989;SDS011;57331;52.054;5.294;2023-07-29T00:28:58;6.65;;;2.47;;
69989;SDS011;57331;52.054;5.294;2023-07-29T00:31:27;5.67;;;2.43;;
69989;SDS011;57331;52.054;5.294;2023-07-29T00:33:56;5.70;;;2.50;;
69989;SDS011;57331;52.054;5.294;2023-07-29T00:36:24;6.40;;;2.50;;
69989;SDS011;57331;52.054;5.294;2023-07-29T00:38:51;5.32;;;2.35;;
69989;SDS011;57331;52.054;5.294;2023-07-29T00:41:21;6.47;;;2.47;;
69989;SDS011;57331;52.054;5.294;2023-07-29T00:43:49;4.33;;;2.03;;
69989;SDS011;57331;52.054;5.294;2023-07-29T00:46:17;6.18;;;2.38;;
69989;SDS011;57331;52.054;5.294;2023-07-29T00:48:45;7.10;;;2.58;;
69989;SDS011;57331;52.054;5.294;2023-07-29T00:51:13;8.00;;;2.85;;
69989;SDS011;57331;52.054;5.294;2023-07-29T00:53:40;7.47;;;2.20;;
69989;SDS011;57331;52.054;5.294;2023-07-29T00:56:07;7.30;;;2.50;;
69989;SDS011;57331;52.054;5.294;2023-07-29T00:58:37;6.65;;;3.58;;
69989;SDS011;57331;52.054;5.294;2023-07-29T01:01:05;6.95;;;2.72;;
69989;SDS011;57331;52.054;5.294;2023-07-29T01:03:32;5.40;;;2.30;;
69989;SDS011;57331;52.054;5.294;2023-07-29T01:06:15;7.25;;;2.35;;
69989;SDS011;57331;52.054;5.294;2023-07-29T01:09:12;5.57;;;2.30;;
69989;SDS011;57331;52.054;5.294;2023-07-29T01:14:34;8.10;;;2.40;;
69989;SDS011;57331;52.054;5.294;2023-07-29T01:17:09;5.97;;;2.65;;
69989;SDS011;57331;52.054;5.294;2023-07-29T01:19:43;8.68;;;3.15;;
69989;SDS011;57331;52.054;5.294;2023-07-29T01:22:36;8.40;;;3.00;;
69989;SDS011;57331;52.054;5.294;2023-07-29T01:25:03;7.82;;;2.88;;
69989;SDS011;57331;52.054;5.294;2023-07-29T01:27:31;9.57;;;3.13;;
69989;SDS011;57331;52.054;5.294;2023-07-29T01:29:58;11.32;;;2.40;;
69989;SDS011;57331;52.054;5.294;2023-07-29T01:35:00;7.17;;;3.30;;
69989;SDS011;57331;52.054;5.294;2023-07-29T01:37:34;10.05;;;3.20;;
69989;SDS011;57331;52.054;5.294;2023-07-29T01:40:04;7.88;;;2.72;;
69989;SDS011;57331;52.054;5.294;2023-07-29T01:42:33;8.43;;;3.30;;
69989;SDS011;57331;52.054;5.294;2023-07-29T01:45:01;5.85;;;2.63;;
69989;SDS011;57331;52.054;5.294;2023-07-29T01:47:28;8.33;;;3.53;;
69989;SDS011;57331;52.054;5.294;2023-07-29T01:49:56;8.32;;;3.15;;
69989;SDS011;57331;52.054;5.294;2023-07-29T01:52:23;9.82;;;4.15;;
69989;SDS011;57331;52.054;5.294;2023-07-29T01:54:50;11.00;;;4.53;;
69989;SDS011;57331;52.054;5.294;2023-07-29T01:57:18;12.10;;;5.20;;
69989;SDS011;57331;52.054;5.294;2023-07-29T01:59:45;9.90;;;4.33;;
69989;SDS011;57331;52.054;5.294;2023-07-29T02:02:12;9.73;;;4.00;;
69989;SDS011;57331;52.054;5.294;2023-07-29T02:04:39;12.57;;;3.92;;
69989;SDS011;57331;52.054;5.294;2023-07-29T02:07:07;9.38;;;3.78;;
69989;SDS011;57331;52.054;5.294;2023-07-29T02:09:34;11.88;;;4.65;;
69989;SDS011;57331;52.054;5.294;2023-07-29T02:12:00;6.53;;;3.00;;
69989;SDS011;57331;52.054;5.294;2023-07-29T02:14:36;11.90;;;4.88;;
69989;SDS011;57331;52.054;5.294;2023-07-29T02:17:03;9.32;;;4.40;;
69989;SDS011;57331;52.054;5.294;2023-07-29T02:19:31;9.93;;;4.38;;
69989;SDS011;57331;52.054;5.294;2023-07-29T02:21:58;11.40;;;5.45;;
69989;SDS011;57331;52.054;5.294;2023-07-29T02:24:25;16.10;;;5.37;;
69989;SDS011;57331;52.054;5.294;2023-07-29T02:26:52;8.48;;;4.18;;
69989;SDS011;57331;52.054;5.294;2023-07-29T02:29:19;12.27;;;4.80;;
69989;SDS011;57331;52.054;5.294;2023-07-29T02:31:47;13.40;;;5.13;;
69989;SDS011;57331;52.054;5.294;2023-07-29T02:34:15;10.32;;;5.28;;
69989;SDS011;57331;52.054;5.294;2023-07-29T02:36:42;11.27;;;5.13;;
69989;SDS011;57331;52.054;5.294;2023-07-29T02:39:09;16.98;;;5.50;;
69989;SDS011;57331;52.054;5.294;2023-07-29T02:41:36;9.27;;;4.47;;
69989;SDS011;57331;52.054;5.294;2023-07-29T02:44:04;11.35;;;6.00;;
69989;SDS011;57331;52.054;5.294;2023-07-29T02:46:32;10.15;;;5.47;;
69989;SDS011;57331;52.054;5.294;2023-07-29T02:49:01;9.43;;;5.10;;
69989;SDS011;57331;52.054;5.294;2023-07-29T02:51:29;12.57;;;5.78;;
69989;SDS011;57331;52.054;5.294;2023-07-29T02:53:57;17.67;;;6.10;;
69989;SDS011;57331;52.054;5.294;2023-07-29T02:56:24;11.52;;;5.57;;
69989;SDS011;57331;52.054;5.294;2023-07-29T02:58:51;10.70;;;4.93;;
69989;SDS011;57331;52.054;5.294;2023-07-29T03:01:18;13.87;;;5.20;;
69989;SDS011;57331;52.054;5.294;2023-07-29T03:03:45;12.27;;;5.40;;
69989;SDS011;57331;52.054;5.294;2023-07-29T03:06:13;10.57;;;4.38;;
69989;SDS011;57331;52.054;5.294;2023-07-29T03:08:41;9.60;;;3.78;;
69989;SDS011;57331;52.054;5.294;2023-07-29T03:11:09;11.15;;;5.35;;
69989;SDS011;57331;52.054;5.294;2023-07-29T03:13:38;12.63;;;5.40;;
69989;SDS011;57331;52.054;5.294;2023-07-29T03:16:06;8.75;;;4.03;;
69989;SDS011;57331;52.054;5.294;2023-07-29T03:18:34;8.18;;;3.20;;
69989;SDS011;57331;52.054;5.294;2023-07-29T03:21:02;10.43;;;4.93;;
69989;SDS011;57331;52.054;5.294;2023-07-29T03:23:30;13.55;;;4.97;;
69989;SDS011;57331;52.054;5.294;2023-07-29T03:25:58;11.40;;;5.27;;
69989;SDS011;57331;52.054;5.294;2023-07-29T03:28:28;10.40;;;5.40;;
69989;SDS011;57331;52.054;5.294;2023-07-29T03:30:56;10.18;;;5.22;;
69989;SDS011;57331;52.054;5.294;2023-07-29T03:33:24;11.43;;;5.07;;
69989;SDS011;57331;52.054;5.294;2023-07-29T03:35:52;9.90;;;4.80;;
69989;SDS011;57331;52.054;5.294;2023-07-29T03:38:19;11.33;;;3.93;;
69989;SDS011;57331;52.054;5.294;2023-07-29T03:40:47;10.10;;;5.18;;
69989;SDS011;57331;52.054;5.294;2023-07-29T03:43:14;10.60;;;4.50;;
69989;SDS011;57331;52.054;5.294;2023-07-29T03:45:42;10.82;;;4.57;;
69989;SDS011;57331;52.054;5.294;2023-07-29T03:48:09;12.45;;;4.88;;
69989;SDS011;57331;52.054;5.294;2023-07-29T03:50:36;9.03;;;4.40;;
69989;SDS011;57331;52.054;5.294;2023-07-29T03:53:04;10.00;;;3.70;;
69989;SDS011;57331;52.054;5.294;2023-07-29T03:55:32;11.13;;;4.38;;
69989;SDS011;57331;52.054;5.294;2023-07-29T03:57:59;8.95;;;3.47;;
69989;SDS011;57331;52.054;5.294;2023-07-29T04:00:27;8.32;;;3.47;;
69989;SDS011;57331;52.054;5.294;2023-07-29T04:02:54;7.53;;;3.20;;
69989;SDS011;57331;52.054;5.294;2023-07-29T04:05:22;5.95;;;3.03;;
69989;SDS011;57331;52.054;5.294;2023-07-29T04:07:49;7.50;;;3.55;;
69989;SDS011;57331;52.054;5.294;2023-07-29T04:10:16;7.93;;;2.90;;
69989;SDS011;57331;52.054;5.294;2023-07-29T04:12:43;8.18;;;3.00;;
69989;SDS011;57331;52.054;5.294;2023-07-29T04:15:10;7.73;;;2.90;;
69989;SDS011;57331;52.054;5.294;2023-07-29T04:17:38;8.70;;;2.70;;
69989;SDS011;57331;52.054;5.294;2023-07-29T04:20:05;9.38;;;3.13;;
69989;SDS011;57331;52.054;5.294;2023-07-29T04:22:33;6.18;;;2.67;;
69989;SDS011;57331;52.054;5.294;2023-07-29T04:25:00;7.22;;;3.13;;
69989;SDS011;57331;52.054;5.294;2023-07-29T04:27:27;7.00;;;3.00;;
69989;SDS011;57331;52.054;5.294;2023-07-29T04:29:54;7.65;;;2.90;;
69989;SDS011;57331;52.054;5.294;2023-07-29T04:32:21;8.43;;;2.92;;
69989;SDS011;57331;52.054;5.294;2023-07-29T04:34:48;5.93;;;2.65;;
69989;SDS011;57331;52.054;5.294;2023-07-29T04:37:16;7.32;;;2.88;;
69989;SDS011;57331;52.054;5.294;2023-07-29T04:39:44;6.90;;;2.80;;
69989;SDS011;57331;52.054;5.294;2023-07-29T04:42:11;9.68;;;2.80;;
69989;SDS011;57331;52.054;5.294;2023-07-29T04:44:39;10.40;;;3.13;;
69989;SDS011;57331;52.054;5.294;2023-07-29T04:47:08;7.43;;;3.38;;
69989;SDS011;57331;52.054;5.294;2023-07-29T04:49:35;6.88;;;3.00;;
69989;SDS011;57331;52.054;5.294;2023-07-29T04:52:03;7.20;;;2.63;;
69989;SDS011;57331;52.054;5.294;2023-07-29T04:54:30;7.70;;;3.08;;
69989;SDS011;57331;52.054;5.294;2023-07-29T04:56:57;6.45;;;2.90;;
69989;SDS011;57331;52.054;5.294;2023-07-29T04:59:26;9.93;;;3.42;;
69989;SDS011;57331;52.054;5.294;2023-07-29T05:01:53;6.53;;;3.13;;
69989;SDS011;57331;52.054;5.294;2023-07-29T05:04:21;6.70;;;3.00;;
69989;SDS011;57331;52.054;5.294;2023-07-29T05:06:49;7.15;;;2.65;;
69989;SDS011;57331;52.054;5.294;2023-07-29T05:09:17;6.80;;;3.08;;
69989;SDS011;57331;52.054;5.294;2023-07-29T05:11:47;6.10;;;2.80;;
69989;SDS011;57331;52.054;5.294;2023-07-29T05:14:16;9.05;;;3.50;;
69989;SDS011;57331;52.054;5.294;2023-07-29T05:16:44;8.30;;;2.87;;
69989;SDS011;57331;52.054;5.294;2023-07-29T05:19:11;8.70;;;3.63;;
69989;SDS011;57331;52.054;5.294;2023-07-29T05:21:38;8.10;;;3.30;;
69989;SDS011;57331;52.054;5.294;2023-07-29T05:24:06;9.10;;;3.38;;
69989;SDS011;57331;52.054;5.294;2023-07-29T05:26:33;9.75;;;3.78;;
69989;SDS011;57331;52.054;5.294;2023-07-29T05:29:01;9.73;;;3.37;;
69989;SDS011;57331;52.054;5.294;2023-07-29T05:31:29;8.77;;;3.40;;
69989;SDS011;57331;52.054;5.294;2023-07-29T05:33:56;6.95;;;3.67;;
69989;SDS011;57331;52.054;5.294;2023-07-29T05:36:24;9.75;;;3.70;;
69989;SDS011;57331;52.054;5.294;2023-07-29T05:38:52;7.85;;;3.50;;
69989;SDS011;57331;52.054;5.294;2023-07-29T05:41:19;9.73;;;3.60;;
69989;SDS011;57331;52.054;5.294;2023-07-29T05:43:47;10.88;;;3.58;;
69989;SDS011;57331;52.054;5.294;2023-07-29T05:46:14;10.65;;;4.10;;
69989;SDS011;57331;52.054;5.294;2023-07-29T05:48:41;8.23;;;3.95;;
69989;SDS011;57331;52.054;5.294;2023-07-29T05:51:09;11.82;;;4.07;;
69989;SDS011;57331;52.054;5.294;2023-07-29T05:53:36;7.83;;;3.90;;
69989;SDS011;57331;52.054;5.294;2023-07-29T05:56:03;8.90;;;3.60;;
69989;SDS011;57331;52.054;5.294;2023-07-29T05:58:31;8.80;;;3.97;;
69989;SDS011;57331;52.054;5.294;2023-07-29T06:00:58;9.98;;;3.80;;
69989;SDS011;57331;52.054;5.294;2023-07-29T06:03:25;11.13;;;4.10;;
69989;SDS011;57331;52.054;5.294;2023-07-29T06:05:52;9.70;;;4.00;;
69989;SDS011;57331;52.054;5.294;2023-07-29T06:08:20;16.02;;;4.32;;
69989;SDS011;57331;52.054;5.294;2023-07-29T06:10:47;15.07;;;4.15;;
69989;SDS011;57331;52.054;5.294;2023-07-29T06:13:14;9.95;;;3.72;;
69989;SDS011;57331;52.054;5.294;2023-07-29T06:15:42;8.85;;;3.92;;
69989;SDS011;57331;52.054;5.294;2023-07-29T06:18:10;10.67;;;4.13;;
69989;SDS011;57331;52.054;5.294;2023-07-29T06:20:37;9.93;;;4.07;;
69989;SDS011;57331;52.054;5.294;2023-07-29T06:23:05;12.82;;;4.68;;
69989;SDS011;57331;52.054;5.294;2023-07-29T06:25:32;10.57;;;4.57;;
69989;SDS011;57331;52.054;5.294;2023-07-29T06:27:59;10.77;;;4.25;;
69989;SDS011;57331;52.054;5.294;2023-07-29T06:30:27;15.93;;;4.80;;
69989;SDS011;57331;52.054;5.294;2023-07-29T06:32:54;10.90;;;3.72;;
69989;SDS011;57331;52.054;5.294;2023-07-29T06:35:21;10.82;;;4.50;;
69989;SDS011;57331;52.054;5.294;2023-07-29T06:37:48;10.02;;;4.50;;
69989;SDS011;57331;52.054;5.294;2023-07-29T06:40:16;10.88;;;4.35;;
69989;SDS011;57331;52.054;5.294;2023-07-29T06:42:43;12.63;;;4.03;;
69989;SDS011;57331;52.054;5.294;2023-07-29T06:45:10;11.43;;;4.45;;
69989;SDS011;57331;52.054;5.294;2023-07-29T06:47:38;10.93;;;4.40;;
69989;SDS011;57331;52.054;5.294;2023-07-29T06:50:05;13.18;;;5.03;;
69989;SDS011;57331;52.054;5.294;2023-07-29T06:52:32;9.25;;;4.40;;
69989;SDS011;57331;52.054;5.294;2023-07-29T06:55:00;9.87;;;4.23;;
69989;SDS011;57331;52.054;5.294;2023-07-29T06:57:27;11.68;;;4.63;;
69989;SDS011;57331;52.054;5.294;2023-07-29T06:59:54;14.93;;;4.55;;
69989;SDS011;57331;52.054;5.294;2023-07-29T07:02:21;12.60;;;5.05;;
69989;SDS011;57331;52.054;5.294;2023-07-29T07:04:48;11.00;;;4.40;;
69989;SDS011;57331;52.054;5.294;2023-07-29T07:07:16;8.33;;;4.47;;
69989;SDS011;57331;52.054;5.294;2023-07-29T07:09:43;9.13;;;4.68;;
69989;SDS011;57331;52.054;5.294;2023-07-29T07:12:10;10.43;;;5.13;;
69989;SDS011;57331;52.054;5.294;2023-07-29T07:14:37;9.57;;;4.20;;
69989;SDS011;57331;52.054;5.294;2023-07-29T07:17:04;11.55;;;4.35;;
69989;SDS011;57331;52.054;5.294;2023-07-29T07:19:31;9.93;;;4.40;;
69989;SDS011;57331;52.054;5.294;2023-07-29T07:21:59;10.90;;;4.45;;
69989;SDS011;57331;52.054;5.294;2023-07-29T07:24:26;11.73;;;5.40;;
69989;SDS011;57331;52.054;5.294;2023-07-29T07:26:53;8.70;;;4.40;;
69989;SDS011;57331;52.054;5.294;2023-07-29T07:29:20;9.30;;;3.92;;
69989;SDS011;57331;52.054;5.294;2023-07-29T07:31:51;10.73;;;4.97;;
69989;SDS011;57331;52.054;5.294;2023-07-29T07:34:22;12.23;;;5.00;;
69989;SDS011;57331;52.054;5.294;2023-07-29T07:36:49;11.80;;;5.00;;
69989;SDS011;57331;52.054;5.294;2023-07-29T07:39:16;9.75;;;4.63;;
69989;SDS011;57331;52.054;5.294;2023-07-29T07:41:44;8.13;;;4.60;;
69989;SDS011;57331;52.054;5.294;2023-07-29T07:44:11;15.23;;;6.37;;
69989;SDS011;57331;52.054;5.294;2023-07-29T07:46:44;9.90;;;4.97;;
69989;SDS011;57331;52.054;5.294;2023-07-29T07:49:11;11.35;;;4.10;;
69989;SDS011;57331;52.054;5.294;2023-07-29T07:51:39;9.15;;;4.40;;
69989;SDS011;57331;52.054;5.294;2023-07-29T07:54:06;9.30;;;4.22;;
69989;SDS011;57331;52.054;5.294;2023-07-29T07:56:33;8.30;;;4.23;;
69989;SDS011;57331;52.054;5.294;2023-07-29T07:59:01;11.10;;;4.20;;
69989;SDS011;57331;52.054;5.294;2023-07-29T08:01:33;10.50;;;4.30;;
69989;SDS011;57331;52.054;5.294;2023-07-29T08:04:02;10.18;;;4.07;;
69989;SDS011;57331;52.054;5.294;2023-07-29T08:06:30;6.55;;;3.85;;
69989;SDS011;57331;52.054;5.294;2023-07-29T08:08:58;7.10;;;3.67;;
69989;SDS011;57331;52.054;5.294;2023-07-29T08:11:25;9.10;;;4.25;;
69989;SDS011;57331;52.054;5.294;2023-07-29T08:13:52;5.68;;;2.92;;
69989;SDS011;57331;52.054;5.294;2023-07-29T08:16:19;12.65;;;4.20;;
69989;SDS011;57331;52.054;5.294;2023-07-29T08:18:46;8.50;;;3.67;;
69989;SDS011;57331;52.054;5.294;2023-07-29T08:21:13;9.13;;;3.30;;
69989;SDS011;57331;52.054;5.294;2023-07-29T08:23:40;8.35;;;3.22;;
69989;SDS011;57331;52.054;5.294;2023-07-29T08:26:07;6.45;;;3.28;;
69989;SDS011;57331;52.054;5.294;2023-07-29T08:28:35;6.15;;;3.25;;
69989;SDS011;57331;52.054;5.294;2023-07-29T08:31:06;7.07;;;3.70;;
69989;SDS011;57331;52.054;5.294;2023-07-29T08:33:34;9.13;;;3.50;;
69989;SDS011;57331;52.054;5.294;2023-07-29T08:36:01;9.52;;;3.58;;
69989;SDS011;57331;52.054;5.294;2023-07-29T08:38:29;9.45;;;3.22;;
69989;SDS011;57331;52.054;5.294;2023-07-29T08:43:50;10.40;;;3.65;;
69989;SDS011;57331;52.054;5.294;2023-07-29T08:46:28;7.43;;;3.60;;
69989;SDS011;57331;52.054;5.294;2023-07-29T08:48:55;11.85;;;4.13;;
69989;SDS011;57331;52.054;5.294;2023-07-29T08:51:23;8.15;;;4.05;;
69989;SDS011;57331;52.054;5.294;2023-07-29T08:53:50;8.43;;;4.40;;
69989;SDS011;57331;52.054;5.294;2023-07-29T08:56:18;7.32;;;4.20;;
69989;SDS011;57331;52.054;5.294;2023-07-29T08:58:45;9.63;;;4.10;;
69989;SDS011;57331;52.054;5.294;2023-07-29T09:01:13;11.35;;;4.60;;
69989;SDS011;57331;52.054;5.294;2023-07-29T09:03:41;8.52;;;4.30;;
69989;SDS011;57331;52.054;5.294;2023-07-29T09:06:09;8.45;;;4.20;;
69989;SDS011;57331;52.054;5.294;2023-07-29T09:08:36;9.57;;;4.60;;
69989;SDS011;57331;52.054;5.294;2023-07-29T09:11:03;8.07;;;3.70;;
69989;SDS011;57331;52.054;5.294;2023-07-29T09:13:30;6.95;;;3.60;;
69989;SDS011;57331;52.054;5.294;2023-07-29T09:15:57;11.35;;;3.88;;
69989;SDS011;57331;52.054;5.294;2023-07-29T09:18:25;8.13;;;4.10;;
69989;SDS011;57331;52.054;5.294;2023-07-29T09:20:53;7.10;;;4.03;;
69989;SDS011;57331;52.054;5.294;2023-07-29T09:23:21;8.00;;;3.97;;
69989;SDS011;57331;52.054;5.294;2023-07-29T09:25:48;6.47;;;3.50;;
69989;SDS011;57331;52.054;5.294;2023-07-29T09:28:16;7.85;;;3.78;;
69989;SDS011;57331;52.054;5.294;2023-07-29T09:30:44;6.90;;;3.60;;
69989;SDS011;57331;52.054;5.294;2023-07-29T09:33:12;6.93;;;3.55;;
69989;SDS011;57331;52.054;5.294;2023-07-29T09:35:39;7.10;;;3.77;;
69989;SDS011;57331;52.054;5.294;2023-07-29T09:38:06;6.47;;;3.80;;
69989;SDS011;57331;52.054;5.294;2023-07-29T09:40:37;11.45;;;3.90;;
69989;SDS011;57331;52.054;5.294;2023-07-29T09:43:06;6.72;;;3.45;;
69989;SDS011;57331;52.054;5.294;2023-07-29T09:45:34;9.52;;;3.42;;
69989;SDS011;57331;52.054;5.294;2023-07-29T09:48:02;8.20;;;3.63;;
69989;SDS011;57331;52.054;5.294;2023-07-29T09:50:36;8.77;;;3.67;;
69989;SDS011;57331;52.054;5.294;2023-07-29T09:53:03;6.05;;;3.50;;
69989;SDS011;57331;52.054;5.294;2023-07-29T09:55:33;8.00;;;3.60;;
69989;SDS011;57331;52.054;5.294;2023-07-29T09:58:01;5.88;;;3.20;;
69989;SDS011;57331;52.054;5.294;2023-07-29T10:00:31;5.63;;;2.80;;
69989;SDS011;57331;52.054;5.294;2023-07-29T10:02:59;8.10;;;2.90;;
69989;SDS011;57331;52.054;5.294;2023-07-29T10:05:27;9.07;;;2.67;;
69989;SDS011;57331;52.054;5.294;2023-07-29T10:07:55;7.10;;;2.83;;
69989;SDS011;57331;52.054;5.294;2023-07-29T10:10:23;5.63;;;2.70;;
69989;SDS011;57331;52.054;5.294;2023-07-29T10:12:50;5.40;;;2.60;;
69989;SDS011;57331;52.054;5.294;2023-07-29T10:15:17;6.03;;;2.75;;
69989;SDS011;57331;52.054;5.294;2023-07-29T10:17:44;6.03;;;2.88;;
69989;SDS011;57331;52.054;5.294;2023-07-29T10:20:15;4.82;;;2.40;;
69989;SDS011;57331;52.054;5.294;2023-07-29T10:22:43;4.93;;;2.40;;
69989;SDS011;57331;52.054;5.294;2023-07-29T10:25:18;4.67;;;2.30;;
69989;SDS011;57331;52.054;5.294;2023-07-29T10:28:08;7.88;;;2.40;;
69989;SDS011;57331;52.054;5.294;2023-07-29T10:30:36;5.47;;;2.60;;
69989;SDS011;57331;52.054;5.294;2023-07-29T10:33:05;6.35;;;2.60;;
69989;SDS011;57331;52.054;5.294;2023-07-29T10:35:33;6.75;;;2.63;;
69989;SDS011;57331;52.054;5.294;2023-07-29T10:38:01;4.70;;;2.20;;
69989;SDS011;57331;52.054;5.294;2023-07-29T10:43:35;8.63;;;2.45;;
69989;SDS011;57331;52.054;5.294;2023-07-29T10:46:20;5.90;;;2.50;;
69989;SDS011;57331;52.054;5.294;2023-07-29T10:48:55;5.25;;;2.50;;
69989;SDS011;57331;52.054;5.294;2023-07-29T10:54:11;6.57;;;2.80;;
69989;SDS011;57331;52.054;5.294;2023-07-29T10:56:41;7.35;;;3.00;;
69989;SDS011;57331;52.054;5.294;2023-07-29T11:01:50;10.05;;;3.45;;
69989;SDS011;57331;52.054;5.294;2023-07-29T11:09:50;7.38;;;3.67;;
69989;SDS011;57331;52.054;5.294;2023-07-29T11:12:35;7.32;;;3.83;;
69989;SDS011;57331;52.054;5.294;2023-07-29T11:15:04;7.38;;;3.17;;
69989;SDS011;57331;52.054;5.294;2023-07-29T11:17:32;7.13;;;3.30;;
69989;SDS011;57331;52.054;5.294;2023-07-29T11:20:03;7.03;;;3.20;;
69989;SDS011;57331;52.054;5.294;2023-07-29T11:22:30;8.02;;;4.00;;
69989;SDS011;57331;52.054;5.294;2023-07-29T11:24:59;7.70;;;3.42;;
69989;SDS011;57331;52.054;5.294;2023-07-29T11:27:26;8.38;;;4.13;;
69989;SDS011;57331;52.054;5.294;2023-07-29T11:29:57;10.93;;;4.73;;
69989;SDS011;57331;52.054;5.294;2023-07-29T11:32:28;8.68;;;3.85;;
69989;SDS011;57331;52.054;5.294;2023-07-29T11:34:56;8.43;;;3.72;;
69989;SDS011;57331;52.054;5.294;2023-07-29T11:37:23;10.00;;;3.70;;
69989;SDS011;57331;52.054;5.294;2023-07-29T11:39:50;7.10;;;3.78;;
69989;SDS011;57331;52.054;5.294;2023-07-29T11:42:17;8.07;;;3.90;;
69989;SDS011;57331;52.054;5.294;2023-07-29T11:44:45;8.82;;;3.97;;
69989;SDS011;57331;52.054;5.294;2023-07-29T11:47:12;19.88;;;9.48;;
69989;SDS011;57331;52.054;5.294;2023-07-29T11:49:39;8.65;;;4.45;;
69989;SDS011;57331;52.054;5.294;2023-07-29T11:52:07;8.20;;;4.72;;
69989;SDS011;57331;52.054;5.294;2023-07-29T11:54:38;9.53;;;4.10;;
69989;SDS011;57331;52.054;5.294;2023-07-29T11:57:06;7.10;;;3.80;;
69989;SDS011;57331;52.054;5.294;2023-07-29T11:59:36;8.27;;;4.78;;
69989;SDS011;57331;52.054;5.294;2023-07-29T12:02:05;7.40;;;3.60;;
69989;SDS011;57331;52.054;5.294;2023-07-29T12:04:36;7.32;;;3.85;;
69989;SDS011;57331;52.054;5.294;2023-07-29T12:07:05;9.63;;;3.50;;
69989;SDS011;57331;52.054;5.294;2023-07-29T12:09:35;9.15;;;3.45;;
69989;SDS011;57331;52.054;5.294;2023-07-29T12:12:03;8.27;;;3.20;;
69989;SDS011;57331;52.054;5.294;2023-07-29T12:14:32;7.43;;;2.85;;
69989;SDS011;57331;52.054;5.294;2023-07-29T12:17:00;7.00;;;3.20;;
69989;SDS011;57331;52.054;5.294;2023-07-29T12:19:35;7.47;;;3.37;;
69989;SDS011;57331;52.054;5.294;2023-07-29T12:22:03;6.97;;;3.65;;
69989;SDS011;57331;52.054;5.294;2023-07-29T12:24:33;7.78;;;3.35;;
69989;SDS011;57331;52.054;5.294;2023-07-29T12:27:02;5.82;;;3.05;;
69989;SDS011;57331;52.054;5.294;2023-07-29T12:29:30;6.15;;;3.08;;
69989;SDS011;57331;52.054;5.294;2023-07-29T12:31:58;6.93;;;3.00;;
69989;SDS011;57331;52.054;5.294;2023-07-29T12:34:29;8.18;;;3.22;;
69989;SDS011;57331;52.054;5.294;2023-07-29T12:36:58;5.95;;;2.88;;
69989;SDS011;57331;52.054;5.294;2023-07-29T12:39:26;6.32;;;2.97;;
69989;SDS011;57331;52.054;5.294;2023-07-29T12:41:55;5.03;;;2.70;;
69989;SDS011;57331;52.054;5.294;2023-07-29T12:44:33;6.77;;;2.80;;
69989;SDS011;57331;52.054;5.294;2023-07-29T12:47:02;4.60;;;2.50;;
69989;SDS011;57331;52.054;5.294;2023-07-29T12:49:30;5.05;;;2.78;;
69989;SDS011;57331;52.054;5.294;2023-07-29T12:51:58;5.10;;;2.38;;
69989;SDS011;57331;52.054;5.294;2023-07-29T12:54:26;5.30;;;2.60;;
69989;SDS011;57331;52.054;5.294;2023-07-29T12:56:52;6.33;;;2.60;;
69989;SDS011;57331;52.054;5.294;2023-07-29T12:59:19;5.05;;;2.40;;
69989;SDS011;57331;52.054;5.294;2023-07-29T13:01:46;6.57;;;2.65;;
69989;SDS011;57331;52.054;5.294;2023-07-29T13:04:14;4.97;;;2.50;;
69989;SDS011;57331;52.054;5.294;2023-07-29T13:06:40;4.38;;;2.33;;
69989;SDS011;57331;52.054;5.294;2023-07-29T13:09:07;5.57;;;2.00;;
69989;SDS011;57331;52.054;5.294;2023-07-29T13:11:34;5.57;;;2.33;;
69989;SDS011;57331;52.054;5.294;2023-07-29T13:14:02;6.13;;;2.30;;
69989;SDS011;57331;52.054;5.294;2023-07-29T13:16:29;9.57;;;2.38;;
69989;SDS011;57331;52.054;5.294;2023-07-29T13:18:56;4.60;;;2.58;;
69989;SDS011;57331;52.054;5.294;2023-07-29T13:21:23;6.00;;;2.30;;
69989;SDS011;57331;52.054;5.294;2023-07-29T13:23:51;5.13;;;2.25;;
69989;SDS011;57331;52.054;5.294;2023-07-29T13:26:18;4.38;;;2.20;;
69989;SDS011;57331;52.054;5.294;2023-07-29T13:28:45;5.35;;;2.13;;
69989;SDS011;57331;52.054;5.294;2023-07-29T13:31:12;6.93;;;2.95;;
69989;SDS011;57331;52.054;5.294;2023-07-29T13:33:39;6.03;;;2.57;;
69989;SDS011;57331;52.054;5.294;2023-07-29T13:36:06;5.32;;;2.50;;
69989;SDS011;57331;52.054;5.294;2023-07-29T13:38:35;5.03;;;2.58;;
69989;SDS011;57331;52.054;5.294;2023-07-29T13:41:02;4.70;;;2.40;;
69989;SDS011;57331;52.054;5.294;2023-07-29T13:43:29;6.97;;;2.75;;
69989;SDS011;57331;52.054;5.294;2023-07-29T13:45:56;4.40;;;2.23;;
69989;SDS011;57331;52.054;5.294;2023-07-29T13:48:23;5.15;;;2.50;;
69989;SDS011;57331;52.054;5.294;2023-07-29T13:50:50;5.10;;;2.30;;
69989;SDS011;57331;52.054;5.294;2023-07-29T13:53:18;5.03;;;2.20;;
69989;SDS011;57331;52.054;5.294;2023-07-29T13:55:45;4.80;;;2.00;;
69989;SDS011;57331;52.054;5.294;2023-07-29T13:58:12;4.27;;;2.20;;
69989;SDS011;57331;52.054;5.294;2023-07-29T14:00:39;10.68;;;3.08;;
69989;SDS011;57331;52.054;5.294;2023-07-29T14:03:06;4.03;;;2.00;;
69989;SDS011;57331;52.054;5.294;2023-07-29T14:05:33;6.05;;;2.67;;
69989;SDS011;57331;52.054;5.294;2023-07-29T14:08:00;4.55;;;2.28;;
69989;SDS011;57331;52.054;5.294;2023-07-29T14:10:28;4.53;;;2.50;;
69989;SDS011;57331;52.054;5.294;2023-07-29T14:12:55;6.28;;;2.92;;
69989;SDS011;57331;52.054;5.294;2023-07-29T14:15:22;5.82;;;2.45;;
69989;SDS011;57331;52.054;5.294;2023-07-29T14:17:49;6.22;;;2.67;;
69989;SDS011;57331;52.054;5.294;2023-07-29T14:20:16;7.32;;;2.45;;
69989;SDS011;57331;52.054;5.294;2023-07-29T14:22:47;4.20;;;2.00;;
69989;SDS011;57331;52.054;5.294;2023-07-29T14:25:14;6.35;;;1.90;;
69989;SDS011;57331;52.054;5.294;2023-07-29T14:27:41;4.30;;;2.20;;
69989;SDS011;57331;52.054;5.294;2023-07-29T14:30:08;7.47;;;2.03;;
69989;SDS011;57331;52.054;5.294;2023-07-29T14:32:35;5.88;;;2.03;;
69989;SDS011;57331;52.054;5.294;2023-07-29T14:35:04;7.07;;;2.20;;
69989;SDS011;57331;52.054;5.294;2023-07-29T14:37:31;7.80;;;2.17;;
69989;SDS011;57331;52.054;5.294;2023-07-29T14:39:58;5.80;;;2.10;;
69989;SDS011;57331;52.054;5.294;2023-07-29T14:42:26;5.95;;;2.05;;
69989;SDS011;57331;52.054;5.294;2023-07-29T14:44:54;4.20;;;1.80;;
69989;SDS011;57331;52.054;5.294;2023-07-29T14:47:21;4.03;;;1.60;;
69989;SDS011;57331;52.054;5.294;2023-07-29T14:49:48;4.50;;;1.75;;
69989;SDS011;57331;52.054;5.294;2023-07-29T14:52:15;4.00;;;1.73;;
69989;SDS011;57331;52.054;5.294;2023-07-29T14:54:43;7.15;;;1.67;;
69989;SDS011;57331;52.054;5.294;2023-07-29T14:57:10;6.28;;;1.92;;
69989;SDS011;57331;52.054;5.294;2023-07-29T14:59:37;5.03;;;1.70;;
69989;SDS011;57331;52.054;5.294;2023-07-29T15:02:05;4.05;;;1.70;;
69989;SDS011;57331;52.054;5.294;2023-07-29T15:04:32;7.15;;;2.17;;
69989;SDS011;57331;52.054;5.294;2023-07-29T15:07:00;6.43;;;2.00;;
69989;SDS011;57331;52.054;5.294;2023-07-29T15:09:27;5.00;;;1.98;;
69989;SDS011;57331;52.054;5.294;2023-07-29T15:11:54;3.67;;;1.80;;
69989;SDS011;57331;52.054;5.294;2023-07-29T15:14:24;5.20;;;1.85;;